Private Wetterstation Sandau
Wetterdaten: Montag, 03.12.2012
Datum Zeit Temp. A. Feuchte A. Luftdruck Regen Wind Richtung Richtung Taupunkt Windchill
03.12.2012 00:01 0,6 C 93 % 1013,2 hPa 0,0 l/m 0,0 km/h (0 Bft) N-NW 337 -0,4 C 0,6 C
03.12.2012 00:06 0,6 C 93 % 1013,2 hPa 0,0 l/m 3,6 km/h (1 Bft) N-NW 337 -0,4 C 0,6 C
03.12.2012 00:11 0,6 C 93 % 1013,2 hPa 0,0 l/m 3,2 km/h (1 Bft) NO 45 -0,4 C 0,6 C
03.12.2012 00:16 0,6 C 93 % 1013,2 hPa 0,0 l/m 6,5 km/h (2 Bft) N-NO 22 -0,4 C -1,5 C
03.12.2012 00:21 0,6 C 93 % 1013,4 hPa 0,0 l/m 4,0 km/h (1 Bft) N 360 -0,4 C 0,6 C
03.12.2012 00:26 0,6 C 93 % 1013,4 hPa 0,0 l/m 5,0 km/h (1 Bft) N-NO 22 -0,4 C -0,9 C
03.12.2012 00:31 0,6 C 93 % 1013,4 hPa 0,0 l/m 4,0 km/h (1 Bft) N-NO 22 -0,4 C 0,6 C
03.12.2012 00:36 0,6 C 93 % 1013,4 hPa 0,0 l/m 7,6 km/h (2 Bft) N-NW 337 -0,4 C -1,9 C
03.12.2012 00:41 0,7 C 93 % 1013,5 hPa 0,0 l/m 12,2 km/h (2 Bft) N-NW 337 -0,3 C -3,0 C
03.12.2012 00:46 0,7 C 93 % 1013,5 hPa 0,0 l/m 13,0 km/h (3 Bft) N-NW 337 -0,3 C -3,2 C
03.12.2012 00:51 0,6 C 93 % 1013,4 hPa 0,0 l/m 9,4 km/h (2 Bft) N-NO 22 -0,4 C -2,4 C
03.12.2012 00:56 0,6 C 93 % 1013,6 hPa 0,0 l/m 4,7 km/h (1 Bft) NO 45 -0,4 C -0,8 C
03.12.2012 01:01 0,6 C 93 % 1013,5 hPa 0,0 l/m 7,2 km/h (2 Bft) N-NO 22 -0,4 C -1,8 C
03.12.2012 01:06 0,6 C 93 % 1013,6 hPa 0,0 l/m 6,8 km/h (2 Bft) N-NO 22 -0,4 C -1,6 C
03.12.2012 01:11 0,6 C 93 % 1013,8 hPa 0,0 l/m 9,7 km/h (2 Bft) N-NW 337 -0,4 C -2,5 C
03.12.2012 01:16 0,6 C 93 % 1013,8 hPa 0,0 l/m 9,4 km/h (2 Bft) N 360 -0,4 C -2,4 C
03.12.2012 01:21 0,6 C 93 % 1013,7 hPa 0,0 l/m 3,6 km/h (1 Bft) N-NO 22 -0,4 C 0,6 C
03.12.2012 01:26 0,6 C 93 % 1013,6 hPa 0,0 l/m 3,2 km/h (1 Bft) NO 45 -0,4 C 0,6 C
03.12.2012 01:31 0,5 C 93 % 1013,8 hPa 0,0 l/m 5,8 km/h (2 Bft) N-NO 22 -0,5 C -1,4 C
03.12.2012 01:36 0,5 C 93 % 1013,7 hPa 0,0 l/m 5,4 km/h (1 Bft) NW 315 -0,5 C -1,2 C
03.12.2012 01:41 0,5 C 92 % 1013,8 hPa 0,0 l/m 3,2 km/h (1 Bft) N-NW 337 -0,6 C 0,5 C
03.12.2012 01:46 0,4 C 92 % 1013,9 hPa 0,0 l/m 4,7 km/h (1 Bft) N 360 -0,7 C -1,0 C
03.12.2012 01:51 0,4 C 92 % 1013,9 hPa 0,0 l/m 4,3 km/h (1 Bft) N-NO 22 -0,7 C 0,4 C
03.12.2012 01:56 0,4 C 92 % 1013,8 hPa 0,0 l/m 6,1 km/h (2 Bft) N-NW 337 -0,7 C -1,6 C
03.12.2012 02:01 0,4 C 92 % 1013,8 hPa 0,0 l/m 3,6 km/h (1 Bft) NW 315 -0,7 C 0,4 C
03.12.2012 02:06 0,3 C 92 % 1013,9 hPa 0,0 l/m 12,2 km/h (2 Bft) W-NW 292 -0,8 C -3,5 C
03.12.2012 02:11 0,3 C 91 % 1014,0 hPa 0,0 l/m 4,0 km/h (1 Bft) N 360 -1,0 C 0,3 C
03.12.2012 02:16 0,2 C 91 % 1014,0 hPa 0,0 l/m 6,1 km/h (2 Bft) N 360 -1,1 C -1,8 C
03.12.2012 02:21 0,2 C 91 % 1014,0 hPa 0,0 l/m 4,7 km/h (1 Bft) W-NW 292 -1,1 C -1,2 C
03.12.2012 02:26 0,2 C 91 % 1014,2 hPa 0,0 l/m 6,1 km/h (2 Bft) NO 45 -1,1 C -1,8 C
03.12.2012 02:31 0,1 C 90 % 1014,4 hPa 0,0 l/m 6,1 km/h (2 Bft) N-NO 22 -1,3 C -1,9 C
03.12.2012 02:36 0,1 C 89 % 1014,5 hPa 0,0 l/m 4,0 km/h (1 Bft) N-NO 22 -1,5 C 0,1 C
03.12.2012 02:41 0,1 C 89 % 1014,5 hPa 0,0 l/m 7,2 km/h (2 Bft) NW 315 -1,5 C -2,4 C
03.12.2012 02:46 0,1 C 89 % 1014,4 hPa 0,0 l/m 7,2 km/h (2 Bft) N-NW 337 -1,5 C -2,4 C
03.12.2012 02:51 0,1 C 90 % 1014,5 hPa 0,0 l/m 8,6 km/h (2 Bft) W-NW 292 -1,3 C -2,8 C
03.12.2012 02:56 0,1 C 89 % 1014,5 hPa 0,0 l/m 4,0 km/h (1 Bft) NW 315 -1,5 C 0,1 C
03.12.2012 03:01 0,1 C 89 % 1014,7 hPa 0,0 l/m 10,1 km/h (2 Bft) N-NW 337 -1,5 C -3,2 C
03.12.2012 03:06 0,0 C 89 % 1014,5 hPa 0,0 l/m 8,3 km/h (2 Bft) N-NW 337 -1,6 C -2,8 C
03.12.2012 03:11 -0,1 C 89 % 1014,6 hPa 0,0 l/m 4,0 km/h (1 Bft) W-NW 292 -1,7 C -0,1 C
03.12.2012 03:16 -0,1 C 88 % 1014,7 hPa 0,0 l/m 10,8 km/h (2 Bft) N-NW 337 -1,8 C -3,6 C
03.12.2012 03:21 -0,1 C 88 % 1014,8 hPa 0,0 l/m 9,7 km/h (2 Bft) NW 315 -1,8 C -3,4 C
03.12.2012 03:26 -0,1 C 88 % 1014,9 hPa 0,0 l/m 8,6 km/h (2 Bft) N-NW 337 -1,8 C -3,0 C
03.12.2012 03:31 -0,1 C 87 % 1014,7 hPa 0,0 l/m 11,2 km/h (2 Bft) NW 315 -2,0 C -3,7 C
03.12.2012 03:36 -0,2 C 87 % 1014,8 hPa 0,0 l/m 13,7 km/h (3 Bft) N-NW 337 -2,1 C -4,4 C
03.12.2012 03:41 -0,2 C 86 % 1014,9 hPa 0,0 l/m 2,5 km/h (1 Bft) NW 315 -2,3 C -0,2 C
03.12.2012 03:46 -0,2 C 86 % 1014,9 hPa 0,0 l/m 5,8 km/h (2 Bft) NO 45 -2,3 C -2,2 C
03.12.2012 03:51 -0,2 C 86 % 1014,9 hPa 0,0 l/m 2,5 km/h (1 Bft) NO 45 -2,3 C -0,2 C
03.12.2012 03:56 -0,2 C 86 % 1014,9 hPa 0,0 l/m 0,0 km/h (0 Bft) W-NW 292 -2,3 C -0,2 C
03.12.2012 04:01 -0,2 C 86 % 1014,8 hPa 0,0 l/m 9,0 km/h (2 Bft) W-NW 292 -2,3 C -3,3 C
03.12.2012 04:06 -0,2 C 86 % 1015,0 hPa 0,0 l/m 8,6 km/h (2 Bft) N-NW 337 -2,3 C -3,2 C
03.12.2012 04:11 -0,2 C 86 % 1014,9 hPa 0,0 l/m 7,6 km/h (2 Bft) NW 315 -2,3 C -2,8 C
03.12.2012 04:16 -0,4 C 86 % 1014,9 hPa 0,0 l/m 8,3 km/h (2 Bft) W-NW 292 -2,4 C -3,3 C
03.12.2012 04:21 -0,4 C 86 % 1014,9 hPa 0,0 l/m 16,9 km/h (3 Bft) W-NW 292 -2,4 C -5,3 C
03.12.2012 04:26 -0,4 C 86 % 1014,8 hPa 0,0 l/m 10,4 km/h (2 Bft) NW 315 -2,4 C -3,9 C
03.12.2012 04:31 -0,5 C 86 % 1014,9 hPa 0,0 l/m 6,1 km/h (2 Bft) NW 315 -2,5 C -2,6 C
03.12.2012 04:36 -0,5 C 85 % 1014,9 hPa 0,0 l/m 4,7 km/h (1 Bft) W-NW 292 -2,7 C -2,0 C
03.12.2012 04:41 -0,5 C 85 % 1014,9 hPa 0,0 l/m 8,3 km/h (2 Bft) NW 315 -2,7 C -3,4 C
03.12.2012 04:46 -0,6 C 85 % 1014,9 hPa 0,0 l/m 7,6 km/h (2 Bft) N-NW 337 -2,8 C -3,3 C
03.12.2012 04:51 -0,6 C 85 % 1014,9 hPa 0,0 l/m 3,2 km/h (1 Bft) N-NW 337 -2,8 C -0,6 C
03.12.2012 04:56 -0,7 C 85 % 1015,0 hPa 0,0 l/m 2,5 km/h (1 Bft) N 360 -2,9 C -0,7 C
03.12.2012 05:01 -0,7 C 84 % 1015,0 hPa 0,0 l/m 2,9 km/h (1 Bft) NW 315 -3,1 C -0,7 C
03.12.2012 05:06 -0,7 C 85 % 1015,1 hPa 0,0 l/m 6,5 km/h (2 Bft) N-NO 22 -2,9 C -3,0 C
03.12.2012 05:11 -0,8 C 84 % 1015,0 hPa 0,0 l/m 4,3 km/h (1 Bft) N-NO 22 -3,2 C -0,8 C
03.12.2012 05:16 -0,8 C 84 % 1015,0 hPa 0,0 l/m 2,2 km/h (1 Bft) N 360 -3,2 C -0,8 C
03.12.2012 05:21 -0,8 C 83 % 1015,1 hPa 0,0 l/m 7,2 km/h (2 Bft) N 360 -3,3 C -3,4 C
03.12.2012 05:26 -0,8 C 83 % 1015,1 hPa 0,0 l/m 4,7 km/h (1 Bft) NW 315 -3,3 C -2,3 C
03.12.2012 05:31 -0,8 C 83 % 1015,1 hPa 0,0 l/m 5,8 km/h (2 Bft) N-NW 337 -3,3 C -2,9 C
03.12.2012 05:36 -0,8 C 84 % 1015,0 hPa 0,0 l/m 1,4 km/h (1 Bft) N 360 -3,2 C -0,8 C
03.12.2012 05:41 -0,8 C 84 % 1015,0 hPa 0,0 l/m 3,2 km/h (1 Bft) N 360 -3,2 C -0,8 C
03.12.2012 05:46 -0,9 C 84 % 1015,1 hPa 0,0 l/m 4,3 km/h (1 Bft) NW 315 -3,3 C -0,9 C
03.12.2012 05:51 -0,9 C 85 % 1015,1 hPa 0,0 l/m 3,6 km/h (1 Bft) W-NW 292 -3,1 C -0,9 C
03.12.2012 05:56 -0,9 C 85 % 1015,1 hPa 0,0 l/m 3,2 km/h (1 Bft) W-NW 292 -3,1 C -0,9 C
03.12.2012 06:01 -0,9 C 85 % 1015,1 hPa 0,0 l/m 5,8 km/h (2 Bft) W 270 -3,1 C -3,0 C
03.12.2012 06:06 -0,9 C 85 % 1015,1 hPa 0,0 l/m 6,8 km/h (2 Bft) W 270 -3,1 C -3,4 C
03.12.2012 06:11 -0,9 C 85 % 1015,2 hPa 0,0 l/m 0,0 km/h (0 Bft) NW 315 -3,1 C -0,9 C
03.12.2012 06:16 -0,9 C 85 % 1015,1 hPa 0,0 l/m 5,8 km/h (2 Bft) W-NW 292 -3,1 C -3,0 C
03.12.2012 06:21 -0,9 C 84 % 1015,3 hPa 0,0 l/m 3,2 km/h (1 Bft) W 270 -3,3 C -0,9 C
03.12.2012 06:26 -0,9 C 85 % 1015,3 hPa 0,0 l/m 5,0 km/h (1 Bft) W-NW 292 -3,1 C -2,6 C
03.12.2012 06:31 -0,9 C 84 % 1015,3 hPa 0,0 l/m 6,1 km/h (2 Bft) W-NW 292 -3,3 C -3,1 C
03.12.2012 06:36 -0,9 C 85 % 1015,3 hPa 0,0 l/m 7,2 km/h (2 Bft) W 270 -3,1 C -3,5 C
03.12.2012 06:41 -1,0 C 84 % 1015,4 hPa 0,0 l/m 4,7 km/h (1 Bft) W-NW 292 -3,4 C -2,6 C
03.12.2012 06:46 -1,0 C 84 % 1015,4 hPa 0,0 l/m 4,7 km/h (1 Bft) W-NW 292 -3,4 C -2,6 C
03.12.2012 06:51 -1,1 C 84 % 1015,3 hPa 0,0 l/m 6,8 km/h (2 Bft) W-NW 292 -3,4 C -3,6 C
03.12.2012 06:56 -1,1 C 84 % 1015,3 hPa 0,0 l/m 10,1 km/h (2 Bft) N-NW 337 -3,4 C -4,7 C
03.12.2012 07:01 -1,1 C 84 % 1015,3 hPa 0,0 l/m 7,2 km/h (2 Bft) NW 315 -3,4 C -3,8 C
03.12.2012 07:06 -1,1 C 84 % 1015,4 hPa 0,0 l/m 0,0 km/h (0 Bft) W 270 -3,4 C -1,1 C
03.12.2012 07:11 -1,2 C 84 % 1015,2 hPa 0,0 l/m 4,7 km/h (1 Bft) W-NW 292 -3,5 C -2,8 C
03.12.2012 07:16 -1,3 C 84 % 1015,3 hPa 0,0 l/m 5,0 km/h (1 Bft) W-NW 292 -3,6 C -3,1 C
03.12.2012 07:21 -1,4 C 84 % 1015,4 hPa 0,0 l/m 1,1 km/h (1 Bft) W 270 -3,7 C -1,4 C
03.12.2012 07:26 -1,5 C 84 % 1015,2 hPa 0,0 l/m 4,0 km/h (1 Bft) W-NW 292 -3,8 C -1,5 C
03.12.2012 07:31 -1,6 C 84 % 1015,3 hPa 0,0 l/m 0,0 km/h (0 Bft) W-NW 292 -3,9 C -1,6 C
03.12.2012 07:36 -1,7 C 85 % 1015,4 hPa 0,0 l/m 5,0 km/h (1 Bft) W-NW 292 -3,9 C -3,5 C
03.12.2012 07:41 -1,7 C 85 % 1015,4 hPa 0,0 l/m 0,0 km/h (0 Bft) W 270 -3,9 C -1,7 C
03.12.2012 07:46 -1,7 C 85 % 1015,5 hPa 0,0 l/m 11,9 km/h (2 Bft) W 270 -3,9 C -5,8 C
03.12.2012 07:51 -1,6 C 85 % 1015,6 hPa 0,0 l/m 2,5 km/h (1 Bft) W-NW 292 -3,8 C -1,6 C
03.12.2012 07:56 -1,6 C 85 % 1015,6 hPa 0,0 l/m 2,9 km/h (1 Bft) W 270 -3,8 C -1,6 C
03.12.2012 08:01 -1,5 C 85 % 1015,6 hPa 0,0 l/m 6,1 km/h (2 Bft) W-NW 292 -3,7 C -3,8 C
03.12.2012 08:06 -1,4 C 86 % 1015,5 hPa 0,0 l/m 0,0 km/h (0 Bft) W 270 -3,4 C -1,4 C
03.12.2012 08:11 -1,3 C 86 % 1015,6 hPa 0,0 l/m 0,0 km/h (0 Bft) W 270 -3,3 C -1,3 C
03.12.2012 08:16 -1,2 C 86 % 1015,5 hPa 0,0 l/m 2,2 km/h (1 Bft) W 270 -3,2 C -1,2 C
03.12.2012 08:21 -1,1 C 86 % 1015,6 hPa 0,0 l/m 4,7 km/h (1 Bft) W 270 -3,1 C -2,7 C
03.12.2012 08:26 -1,1 C 86 % 1015,4 hPa 0,0 l/m 2,5 km/h (1 Bft) W 270 -3,1 C -1,1 C
03.12.2012 08:31 -1,1 C 86 % 1015,5 hPa 0,0 l/m 8,3 km/h (2 Bft) W 270 -3,1 C -4,1 C
03.12.2012 08:36 -0,9 C 86 % 1015,5 hPa 0,0 l/m 3,2 km/h (1 Bft) W 270 -2,9 C -0,9 C
03.12.2012 08:41 -0,9 C 86 % 1015,6 hPa 0,0 l/m 3,6 km/h (1 Bft) W-SW 247 -2,9 C -0,9 C
03.12.2012 08:46 -0,9 C 86 % 1015,3 hPa 0,0 l/m 7,9 km/h (2 Bft) W 270 -2,9 C -3,8 C
03.12.2012 08:51 -0,7 C 86 % 1015,2 hPa 0,0 l/m 1,8 km/h (1 Bft) W-SW 247 -2,7 C -0,7 C
03.12.2012 08:56 -0,7 C 86 % 1015,3 hPa 0,0 l/m 2,9 km/h (1 Bft) W-SW 247 -2,7 C -0,7 C
03.12.2012 09:01 -0,8 C 86 % 1015,3 hPa 0,0 l/m 0,0 km/h (0 Bft) W 270 -2,8 C -0,8 C
03.12.2012 09:06 -0,8 C 86 % 1015,1 hPa 0,0 l/m 0,0 km/h (0 Bft) W 270 -2,8 C -0,8 C
03.12.2012 09:11 -0,9 C 86 % 1015,0 hPa 0,0 l/m 1,4 km/h (1 Bft) W 270 -2,9 C -0,9 C
03.12.2012 09:16 -0,9 C 86 % 1015,2 hPa 0,0 l/m 0,0 km/h (0 Bft) W 270 -2,9 C -0,9 C
03.12.2012 09:21 -0,9 C 86 % 1015,3 hPa 0,0 l/m 0,0 km/h (0 Bft) W 270 -2,9 C -0,9 C
03.12.2012 09:26 -0,9 C 86 % 1015,2 hPa 0,0 l/m 0,0 km/h (0 Bft) W 270 -2,9 C -0,9 C
03.12.2012 09:31 -0,9 C 86 % 1015,1 hPa 0,0 l/m 2,2 km/h (1 Bft) W 270 -2,9 C -0,9 C
03.12.2012 09:36 -1,0 C 86 % 1015,1 hPa 0,0 l/m 1,1 km/h (1 Bft) W 270 -3,0 C -1,0 C
03.12.2012 09:41 -1,0 C 86 % 1015,1 hPa 0,0 l/m 1,1 km/h (1 Bft) W 270 -3,0 C -1,0 C
03.12.2012 09:46 -0,9 C 86 % 1015,0 hPa 0,0 l/m 5,8 km/h (2 Bft) S-SW 202 -2,9 C -3,0 C
03.12.2012 09:51 -0,9 C 86 % 1015,0 hPa 0,0 l/m 2,5 km/h (1 Bft) S-SW 202 -2,9 C -0,9 C
03.12.2012 09:56 -0,9 C 86 % 1014,8 hPa 0,0 l/m 3,6 km/h (1 Bft) S-SW 202 -2,9 C -0,9 C
03.12.2012 10:01 -0,8 C 86 % 1014,9 hPa 0,0 l/m 1,8 km/h (1 Bft) S 180 -2,8 C -0,8 C
03.12.2012 10:06 -0,8 C 86 % 1014,9 hPa 0,0 l/m 4,7 km/h (1 Bft) S 180 -2,8 C -2,3 C
03.12.2012 10:11 -0,7 C 86 % 1015,0 hPa 0,0 l/m 3,2 km/h (1 Bft) S-SW 202 -2,7 C -0,7 C
03.12.2012 10:16 -0,7 C 86 % 1015,0 hPa 0,0 l/m 4,0 km/h (1 Bft) S 180 -2,7 C -0,7 C
03.12.2012 10:21 -0,7 C 86 % 1014,9 hPa 0,0 l/m 6,1 km/h (2 Bft) S-SW 202 -2,7 C -2,9 C
03.12.2012 10:26 -0,6 C 86 % 1015,0 hPa 0,5 l/m 4,0 km/h (1 Bft) S-SO 157 -2,6 C -0,6 C
03.12.2012 10:31 -0,6 C 86 % 1014,8 hPa 0,0 l/m 2,5 km/h (1 Bft) S-SW 202 -2,6 C -0,6 C
03.12.2012 10:36 -0,6 C 86 % 1014,6 hPa 0,0 l/m 4,3 km/h (1 Bft) S 180 -2,6 C -0,6 C
03.12.2012 10:41 -0,4 C 86 % 1014,8 hPa 0,0 l/m 3,2 km/h (1 Bft) S 180 -2,4 C -0,4 C
03.12.2012 10:46 -0,4 C 86 % 1014,8 hPa 0,0 l/m 3,6 km/h (1 Bft) S-SO 157 -2,4 C -0,4 C
03.12.2012 10:51 -0,4 C 86 % 1014,6 hPa 0,0 l/m 9,4 km/h (2 Bft) S-SW 202 -2,4 C -3,6 C
03.12.2012 10:56 -0,3 C 86 % 1014,7 hPa 0,0 l/m 10,1 km/h (2 Bft) S-SW 202 -2,3 C -3,7 C
03.12.2012 11:01 -0,2 C 86 % 1014,7 hPa 0,0 l/m 5,8 km/h (2 Bft) SW 225 -2,3 C -2,2 C
03.12.2012 11:06 -0,2 C 86 % 1014,6 hPa 0,0 l/m 9,0 km/h (2 Bft) SW 225 -2,3 C -3,3 C
03.12.2012 11:11 -0,2 C 86 % 1014,6 hPa 0,0 l/m 3,2 km/h (1 Bft) S 180 -2,3 C -0,2 C
03.12.2012 11:16 -0,1 C 86 % 1014,4 hPa 0,5 l/m 11,9 km/h (2 Bft) S 180 -2,2 C -3,9 C
03.12.2012 11:21 -0,1 C 86 % 1014,2 hPa 0,0 l/m 5,8 km/h (2 Bft) S-SW 202 -2,2 C -2,1 C
03.12.2012 11:26 -0,1 C 87 % 1014,2 hPa 0,0 l/m 3,6 km/h (1 Bft) S-SO 157 -2,0 C -0,1 C
03.12.2012 11:31 -0,1 C 86 % 1013,9 hPa 0,0 l/m 14,8 km/h (3 Bft) W-SW 247 -2,2 C -4,5 C
03.12.2012 11:36 0,1 C 87 % 1014,0 hPa 0,0 l/m 7,2 km/h (2 Bft) S-SW 202 -1,8 C -2,4 C
03.12.2012 11:41 0,1 C 87 % 1013,7 hPa 0,0 l/m 2,9 km/h (1 Bft) S-SW 202 -1,8 C 0,1 C
03.12.2012 11:46 0,2 C 87 % 1013,6 hPa 0,0 l/m 2,5 km/h (1 Bft) S-SW 202 -1,7 C 0,2 C
03.12.2012 11:51 0,3 C 87 % 1013,8 hPa 0,0 l/m 7,9 km/h (2 Bft) S-SW 202 -1,6 C -2,4 C
03.12.2012 11:56 0,4 C 87 % 1013,5 hPa 0,0 l/m 4,7 km/h (1 Bft) SW 225 -1,5 C -1,0 C
03.12.2012 12:01 0,5 C 87 % 1013,5 hPa 0,0 l/m 5,0 km/h (1 Bft) S 180 -1,4 C -1,0 C
03.12.2012 12:06 0,6 C 87 % 1013,4 hPa 0,0 l/m 7,2 km/h (2 Bft) S 180 -1,3 C -1,8 C
03.12.2012 12:11 0,7 C 87 % 1013,3 hPa 0,0 l/m 0,0 km/h (0 Bft) S 180 -1,2 C 0,7 C
03.12.2012 12:16 0,8 C 87 % 1013,1 hPa 0,0 l/m 2,9 km/h (1 Bft) S-SO 157 -1,1 C 0,8 C
03.12.2012 12:21 0,9 C 87 % 1013,1 hPa 0,0 l/m 5,4 km/h (1 Bft) S-SO 157 -1,0 C -0,7 C
03.12.2012 12:26 0,9 C 87 % 1012,8 hPa 0,0 l/m 5,8 km/h (2 Bft) S 180 -1,0 C -0,9 C
03.12.2012 12:31 1,0 C 87 % 1012,8 hPa 0,0 l/m 2,9 km/h (1 Bft) S-SO 157 -0,9 C 1,0 C
03.12.2012 12:36 1,1 C 87 % 1012,8 hPa 0,0 l/m 7,9 km/h (2 Bft) S 180 -0,8 C -1,4 C
03.12.2012 12:41 1,1 C 86 % 1012,7 hPa 0,0 l/m 11,9 km/h (2 Bft) W-SW 247 -1,0 C -2,4 C
03.12.2012 12:46 1,1 C 86 % 1012,7 hPa 0,0 l/m 5,8 km/h (2 Bft) S-SW 202 -1,0 C -0,7 C
03.12.2012 12:51 1,1 C 86 % 1012,7 hPa 0,0 l/m 2,5 km/h (1 Bft) S 180 -1,0 C 1,1 C
03.12.2012 12:56 1,2 C 86 % 1012,7 hPa 0,0 l/m 9,0 km/h (2 Bft) SW 225 -0,9 C -1,6 C
03.12.2012 13:01 1,2 C 86 % 1012,5 hPa 0,0 l/m 10,4 km/h (2 Bft) S 180 -0,9 C -2,0 C
03.12.2012 13:06 1,3 C 86 % 1012,3 hPa 0,0 l/m 3,2 km/h (1 Bft) S-SO 157 -0,8 C 1,3 C
03.12.2012 13:11 1,3 C 86 % 1012,4 hPa 0,0 l/m 5,8 km/h (2 Bft) S 180 -0,8 C -0,5 C
03.12.2012 13:16 1,3 C 86 % 1012,2 hPa 0,0 l/m 7,6 km/h (2 Bft) S-SO 157 -0,8 C -1,1 C
03.12.2012 13:21 1,3 C 86 % 1012,0 hPa 0,0 l/m 5,0 km/h (1 Bft) W-SW 247 -0,8 C -0,1 C
03.12.2012 13:26 1,4 C 86 % 1012,0 hPa 0,0 l/m 3,2 km/h (1 Bft) S 180 -0,7 C 1,4 C
03.12.2012 13:31 1,6 C 86 % 1011,8 hPa 0,0 l/m 5,8 km/h (2 Bft) S-SO 157 -0,5 C -0,1 C
03.12.2012 13:36 1,6 C 86 % 1011,7 hPa 0,0 l/m 6,5 km/h (2 Bft) SW 225 -0,5 C -0,4 C
03.12.2012 13:41 1,8 C 86 % 1011,8 hPa 0,0 l/m 6,5 km/h (2 Bft) S 180 -0,3 C -0,1 C
03.12.2012 13:46 1,8 C 86 % 1011,9 hPa 0,0 l/m 6,5 km/h (2 Bft) S-SO 157 -0,3 C -0,1 C
03.12.2012 13:51 1,9 C 86 % 1011,9 hPa 0,0 l/m 6,1 km/h (2 Bft) S-SO 157 -0,2 C 0,1 C
03.12.2012 13:56 1,9 C 86 % 1011,7 hPa 0,0 l/m 9,7 km/h (2 Bft) SW 225 -0,2 C -1,0 C
03.12.2012 14:01 2,1 C 85 % 1011,6 hPa 0,0 l/m 7,2 km/h (2 Bft) S 180 -0,2 C -0,0 C
03.12.2012 14:06 2,1 C 85 % 1011,5 hPa 0,0 l/m 10,8 km/h (2 Bft) S 180 -0,2 C -1,0 C
03.12.2012 14:11 1,9 C 85 % 1011,3 hPa 0,0 l/m 5,4 km/h (1 Bft) S-SO 157 -0,3 C 0,4 C
03.12.2012 14:16 1,9 C 85 % 1011,4 hPa 0,0 l/m 7,2 km/h (2 Bft) S 180 -0,3 C -0,3 C
03.12.2012 14:21 1,9 C 85 % 1011,2 hPa 0,0 l/m 5,0 km/h (1 Bft) S-SW 202 -0,3 C 0,6 C
03.12.2012 14:26 1,9 C 85 % 1011,2 hPa 0,0 l/m 13,0 km/h (3 Bft) S 180 -0,3 C -1,7 C
03.12.2012 14:31 1,9 C 85 % 1011,1 hPa 0,0 l/m 6,5 km/h (2 Bft) SW 225 -0,3 C -0,0 C
03.12.2012 14:36 1,8 C 85 % 1010,9 hPa 0,0 l/m 8,6 km/h (2 Bft) S-SO 157 -0,4 C -0,8 C
03.12.2012 14:41 1,5 C 85 % 1010,9 hPa 0,0 l/m 4,7 km/h (1 Bft) SW 225 -0,7 C 0,2 C
03.12.2012 14:46 1,3 C 85 % 1010,7 hPa 0,0 l/m 5,8 km/h (2 Bft) S-SO 157 -0,9 C -0,5 C
03.12.2012 14:51 1,3 C 85 % 1010,6 hPa 0,0 l/m 8,3 km/h (2 Bft) S-SO 157 -0,9 C -1,3 C
03.12.2012 14:56 1,1 C 85 % 1010,5 hPa 0,0 l/m 10,1 km/h (2 Bft) S-SO 157 -1,1 C -2,0 C
03.12.2012 15:01 0,9 C 85 % 1010,5 hPa 0,0 l/m 6,5 km/h (2 Bft) SO 135 -1,3 C -1,2 C
03.12.2012 15:06 0,9 C 86 % 1010,4 hPa 0,0 l/m 6,8 km/h (2 Bft) S 180 -1,2 C -1,3 C
03.12.2012 15:11 0,9 C 86 % 1010,4 hPa 0,0 l/m 3,2 km/h (1 Bft) S-SW 202 -1,2 C 0,9 C
03.12.2012 15:16 0,9 C 86 % 1010,4 hPa 0,0 l/m 5,8 km/h (2 Bft) S-SO 157 -1,2 C -0,9 C
03.12.2012 15:21 0,8 C 86 % 1010,3 hPa 0,0 l/m 4,3 km/h (1 Bft) O-SO 112 -1,3 C 0,8 C
03.12.2012 15:26 0,8 C 87 % 1010,1 hPa 0,0 l/m 3,2 km/h (1 Bft) S-SW 202 -1,1 C 0,8 C
03.12.2012 15:31 0,8 C 87 % 1010,0 hPa 0,0 l/m 3,6 km/h (1 Bft) S-SO 157 -1,1 C 0,8 C
03.12.2012 15:36 0,7 C 87 % 1009,9 hPa 0,0 l/m 5,0 km/h (1 Bft) SO 135 -1,2 C -0,8 C
03.12.2012 15:41 0,6 C 87 % 1009,8 hPa 0,0 l/m 2,9 km/h (1 Bft) S-SO 157 -1,3 C 0,6 C
03.12.2012 15:46 0,6 C 87 % 1009,7 hPa 0,0 l/m 6,5 km/h (2 Bft) O-SO 112 -1,3 C -1,5 C
03.12.2012 15:51 0,6 C 87 % 1009,6 hPa 0,0 l/m 8,3 km/h (2 Bft) S-SO 157 -1,3 C -2,1 C
03.12.2012 15:56 0,5 C 87 % 1009,6 hPa 0,0 l/m 9,7 km/h (2 Bft) S-SO 157 -1,4 C -2,6 C
03.12.2012 16:01 0,5 C 87 % 1009,6 hPa 0,0 l/m 4,7 km/h (1 Bft) S 180 -1,4 C -0,9 C
03.12.2012 16:06 0,4 C 87 % 1009,5 hPa 0,0 l/m 4,0 km/h (1 Bft) S-SO 157 -1,5 C 0,4 C
03.12.2012 16:11 0,4 C 87 % 1009,5 hPa 0,0 l/m 4,0 km/h (1 Bft) S 180 -1,5 C 0,4 C
03.12.2012 16:16 0,4 C 87 % 1009,5 hPa 0,0 l/m 3,6 km/h (1 Bft) SO 135 -1,5 C 0,4 C
03.12.2012 16:21 0,3 C 87 % 1009,3 hPa 0,0 l/m 8,3 km/h (2 Bft) S-SO 157 -1,6 C -2,5 C
03.12.2012 16:26 0,3 C 87 % 1009,1 hPa 0,0 l/m 8,3 km/h (2 Bft) SO 135 -1,6 C -2,5 C
03.12.2012 16:31 0,3 C 88 % 1009,1 hPa 0,0 l/m 11,2 km/h (2 Bft) S-SO 157 -1,4 C -3,3 C
03.12.2012 16:36 0,3 C 88 % 1009,1 hPa 0,0 l/m 8,3 km/h (2 Bft) S-SO 157 -1,4 C -2,5 C
03.12.2012 16:41 0,3 C 88 % 1009,1 hPa 0,0 l/m 8,6 km/h (2 Bft) S 180 -1,4 C -2,6 C
03.12.2012 16:46 0,3 C 88 % 1009,0 hPa 0,0 l/m 6,8 km/h (2 Bft) S-SW 202 -1,4 C -2,0 C
03.12.2012 16:51 0,3 C 88 % 1008,8 hPa 0,0 l/m 2,9 km/h (1 Bft) S-SO 157 -1,4 C 0,3 C
03.12.2012 16:56 0,3 C 88 % 1008,8 hPa 0,0 l/m 10,8 km/h (2 Bft) S 180 -1,4 C -3,2 C
03.12.2012 17:01 0,3 C 88 % 1008,8 hPa 0,0 l/m 9,7 km/h (2 Bft) S 180 -1,4 C -2,9 C
03.12.2012 17:06 0,3 C 88 % 1008,6 hPa 0,0 l/m 7,6 km/h (2 Bft) SO 135 -1,4 C -2,3 C
03.12.2012 17:11 0,2 C 88 % 1008,3 hPa 0,0 l/m 3,2 km/h (1 Bft) S-SO 157 -1,5 C 0,2 C
03.12.2012 17:16 0,2 C 88 % 1008,3 hPa 0,0 l/m 0,0 km/h (0 Bft) S-SO 157 -1,5 C 0,2 C
03.12.2012 17:21 0,2 C 88 % 1008,3 hPa 0,0 l/m 6,1 km/h (2 Bft) S-SW 202 -1,5 C -1,8 C
03.12.2012 17:26 0,2 C 88 % 1008,2 hPa 0,0 l/m 7,9 km/h (2 Bft) O-SO 112 -1,5 C -2,5 C
03.12.2012 17:31 0,2 C 88 % 1008,1 hPa 0,0 l/m 6,8 km/h (2 Bft) S-SO 157 -1,5 C -2,1 C
03.12.2012 17:36 0,3 C 88 % 1007,9 hPa 0,0 l/m 6,5 km/h (2 Bft) S 180 -1,4 C -1,9 C
03.12.2012 17:41 0,3 C 88 % 1007,8 hPa 0,0 l/m 5,0 km/h (1 Bft) S 180 -1,4 C -1,2 C
03.12.2012 17:46 0,3 C 88 % 1007,8 hPa 0,0 l/m 7,6 km/h (2 Bft) W-SW 247 -1,4 C -2,3 C
03.12.2012 17:51 0,4 C 88 % 1007,7 hPa 0,0 l/m 5,8 km/h (2 Bft) S 180 -1,3 C -1,5 C
03.12.2012 17:56 0,4 C 88 % 1007,4 hPa 0,0 l/m 6,8 km/h (2 Bft) S-SW 202 -1,3 C -1,9 C
03.12.2012 18:01 0,4 C 88 % 1007,4 hPa 0,0 l/m 7,9 km/h (2 Bft) SW 225 -1,3 C -2,2 C
03.12.2012 18:06 0,4 C 88 % 1007,4 hPa 0,0 l/m 8,3 km/h (2 Bft) S-SW 202 -1,3 C -2,4 C
03.12.2012 18:11 0,4 C 88 % 1007,3 hPa 0,0 l/m 4,0 km/h (1 Bft) SW 225 -1,3 C 0,4 C
03.12.2012 18:16 0,4 C 88 % 1007,1 hPa 0,0 l/m 4,0 km/h (1 Bft) S-SO 157 -1,3 C 0,4 C
03.12.2012 18:21 0,4 C 88 % 1007,0 hPa 0,0 l/m 4,7 km/h (1 Bft) S-SO 157 -1,3 C -1,0 C
03.12.2012 18:26 0,4 C 88 % 1006,9 hPa 0,0 l/m 6,8 km/h (2 Bft) SW 225 -1,3 C -1,9 C
03.12.2012 18:31 0,4 C 88 % 1006,7 hPa 0,0 l/m 7,6 km/h (2 Bft) S-SW 202 -1,3 C -2,1 C
03.12.2012 18:36 0,4 C 88 % 1006,5 hPa 0,0 l/m 5,8 km/h (2 Bft) W-SW 247 -1,3 C -1,5 C
03.12.2012 18:41 0,4 C 88 % 1006,4 hPa 0,0 l/m 6,8 km/h (2 Bft) SW 225 -1,3 C -1,9 C
03.12.2012 18:46 0,5 C 88 % 1006,3 hPa 0,0 l/m 5,8 km/h (2 Bft) SW 225 -1,3 C -1,4 C
03.12.2012 18:51 0,5 C 88 % 1006,2 hPa 0,0 l/m 10,1 km/h (2 Bft) S 180 -1,3 C -2,7 C
03.12.2012 18:56 0,5 C 88 % 1006,1 hPa 0,0 l/m 2,9 km/h (1 Bft) S-SW 202 -1,3 C 0,5 C
03.12.2012 19:01 0,5 C 88 % 1005,9 hPa 0,0 l/m 7,6 km/h (2 Bft) S 180 -1,3 C -2,0 C
03.12.2012 19:06 0,5 C 88 % 1005,8 hPa 0,0 l/m 6,5 km/h (2 Bft) S-SO 157 -1,3 C -1,6 C
03.12.2012 19:11 0,6 C 88 % 1005,9 hPa 0,0 l/m 15,1 km/h (3 Bft) SO 135 -1,2 C -3,7 C
03.12.2012 19:16 0,6 C 88 % 1005,6 hPa 0,0 l/m 3,6 km/h (1 Bft) S 180 -1,2 C 0,6 C
03.12.2012 19:21 0,6 C 88 % 1005,3 hPa 0,0 l/m 4,0 km/h (1 Bft) SO 135 -1,2 C 0,6 C
03.12.2012 19:26 0,6 C 88 % 1005,3 hPa 0,0 l/m 11,9 km/h (2 Bft) S-SO 157 -1,2 C -3,1 C
03.12.2012 19:31 0,8 C 87 % 1005,2 hPa 0,0 l/m 5,8 km/h (2 Bft) SW 225 -1,1 C -1,0 C
03.12.2012 19:36 0,8 C 87 % 1005,2 hPa 0,0 l/m 13,0 km/h (3 Bft) SO 135 -1,1 C -3,0 C
03.12.2012 19:41 0,8 C 87 % 1005,1 hPa 0,0 l/m 13,7 km/h (3 Bft) S-SO 157 -1,1 C -3,2 C
03.12.2012 19:46 0,9 C 87 % 1005,0 hPa 0,0 l/m 11,2 km/h (2 Bft) SO 135 -1,0 C -2,5 C
03.12.2012 19:51 0,9 C 87 % 1004,8 hPa 0,0 l/m 19,1 km/h (3 Bft) S 180 -1,0 C -4,0 C
03.12.2012 19:56 0,9 C 87 % 1004,7 hPa 0,0 l/m 10,8 km/h (2 Bft) S-SO 157 -1,0 C -2,4 C
03.12.2012 20:01 0,9 C 87 % 1004,6 hPa 0,0 l/m 9,0 km/h (2 Bft) SO 135 -1,0 C -2,0 C
03.12.2012 20:06 0,9 C 87 % 1004,4 hPa 0,0 l/m 11,2 km/h (2 Bft) S-SO 157 -1,0 C -2,5 C
03.12.2012 20:11 0,9 C 86 % 1004,4 hPa 0,0 l/m 4,3 km/h (1 Bft) S-SW 202 -1,2 C 0,9 C
03.12.2012 20:16 1,0 C 86 % 1004,3 hPa 0,0 l/m 14,8 km/h (3 Bft) S-SO 157 -1,1 C -3,1 C
03.12.2012 20:21 1,0 C 86 % 1004,1 hPa 0,0 l/m 10,1 km/h (2 Bft) S-SO 157 -1,1 C -2,1 C
03.12.2012 20:26 1,0 C 86 % 1004,1 hPa 0,0 l/m 23,4 km/h (4 Bft) S-SW 202 -1,1 C -4,4 C
03.12.2012 20:31 0,9 C 87 % 1004,1 hPa 0,0 l/m 20,2 km/h (4 Bft) S-SW 202 -1,0 C -4,1 C
03.12.2012 20:36 0,9 C 87 % 1003,9 hPa 0,0 l/m 6,1 km/h (2 Bft) S 180 -1,0 C -1,0 C
03.12.2012 20:41 0,8 C 87 % 1003,9 hPa 0,0 l/m 7,2 km/h (2 Bft) S-SO 157 -1,1 C -1,5 C
03.12.2012 20:46 0,8 C 88 % 1003,8 hPa 0,0 l/m 6,5 km/h (2 Bft) S-SO 157 -1,0 C -1,3 C
03.12.2012 20:51 0,8 C 88 % 1003,8 hPa 0,0 l/m 5,0 km/h (1 Bft) W 270 -1,0 C -0,7 C
03.12.2012 20:56 0,8 C 88 % 1003,7 hPa 0,0 l/m 12,2 km/h (2 Bft) S-SO 157 -1,0 C -2,9 C
03.12.2012 21:01 0,8 C 88 % 1003,4 hPa 0,0 l/m 13,3 km/h (3 Bft) SO 135 -1,0 C -3,1 C
03.12.2012 21:06 0,8 C 88 % 1003,3 hPa 0,0 l/m 14,4 km/h (3 Bft) O-SO 112 -1,0 C -3,3 C
03.12.2012 21:11 0,8 C 88 % 1003,3 hPa 0,0 l/m 11,2 km/h (2 Bft) SW 225 -1,0 C -2,7 C
03.12.2012 21:16 0,8 C 89 % 1003,2 hPa 0,0 l/m 12,6 km/h (3 Bft) S 180 -0,8 C -3,0 C
03.12.2012 21:21 0,7 C 89 % 1003,1 hPa 0,0 l/m 7,6 km/h (2 Bft) S 180 -0,9 C -1,8 C
03.12.2012 21:26 0,6 C 89 % 1003,0 hPa 0,0 l/m 9,4 km/h (2 Bft) SW 225 -1,0 C -2,4 C
03.12.2012 21:31 0,6 C 89 % 1002,7 hPa 0,0 l/m 13,7 km/h (3 Bft) S-SO 157 -1,0 C -3,4 C
03.12.2012 21:36 0,5 C 89 % 1002,6 hPa 0,0 l/m 14,4 km/h (3 Bft) SW 225 -1,1 C -3,7 C
03.12.2012 21:41 0,5 C 89 % 1002,6 hPa 0,0 l/m 13,7 km/h (3 Bft) S 180 -1,1 C -3,6 C
03.12.2012 21:46 0,5 C 89 % 1002,6 hPa 0,0 l/m 11,5 km/h (2 Bft) SO 135 -1,1 C -3,1 C
03.12.2012 21:51 0,5 C 89 % 1002,5 hPa 0,0 l/m 9,7 km/h (2 Bft) S-SW 202 -1,1 C -2,6 C
03.12.2012 21:56 0,5 C 89 % 1002,5 hPa 0,0 l/m 7,6 km/h (2 Bft) SO 135 -1,1 C -2,0 C
03.12.2012 22:01 0,5 C 89 % 1002,4 hPa 0,0 l/m 11,5 km/h (2 Bft) S 180 -1,1 C -3,1 C
03.12.2012 22:06 0,5 C 89 % 1002,3 hPa 0,0 l/m 6,5 km/h (2 Bft) S-SO 157 -1,1 C -1,6 C
03.12.2012 22:11 0,6 C 89 % 1002,1 hPa 0,0 l/m 16,9 km/h (3 Bft) S-SO 157 -1,0 C -4,0 C
03.12.2012 22:16 0,6 C 89 % 1001,9 hPa 0,0 l/m 10,8 km/h (2 Bft) S 180 -1,0 C -2,8 C
03.12.2012 22:21 0,6 C 89 % 1001,8 hPa 0,0 l/m 10,4 km/h (2 Bft) S 180 -1,0 C -2,7 C
03.12.2012 22:26 0,6 C 89 % 1001,6 hPa 0,0 l/m 12,2 km/h (2 Bft) W-SW 247 -1,0 C -3,1 C
03.12.2012 22:31 0,6 C 89 % 1001,6 hPa 0,0 l/m 13,3 km/h (3 Bft) S-SO 157 -1,0 C -3,3 C
03.12.2012 22:36 0,6 C 89 % 1001,4 hPa 0,0 l/m 6,5 km/h (2 Bft) S 180 -1,0 C -1,5 C
03.12.2012 22:41 0,6 C 89 % 1001,3 hPa 0,0 l/m 9,0 km/h (2 Bft) O-SO 112 -1,0 C -2,3 C
03.12.2012 22:46 0,6 C 89 % 1001,2 hPa 0,0 l/m 11,5 km/h (2 Bft) S-SW 202 -1,0 C -3,0 C
03.12.2012 22:51 0,6 C 89 % 1001,2 hPa 0,0 l/m 7,2 km/h (2 Bft) S-SW 202 -1,0 C -1,8 C
03.12.2012 22:56 0,6 C 89 % 1001,1 hPa 0,0 l/m 7,9 km/h (2 Bft) S-SO 157 -1,0 C -2,0 C
03.12.2012 23:01 0,6 C 89 % 1001,0 hPa 0,0 l/m 14,4 km/h (3 Bft) SW 225 -1,0 C -3,6 C
03.12.2012 23:06 0,6 C 89 % 1000,8 hPa 0,0 l/m 8,6 km/h (2 Bft) S-SO 157 -1,0 C -2,2 C
03.12.2012 23:11 0,6 C 89 % 1000,7 hPa 0,0 l/m 8,3 km/h (2 Bft) S-SO 157 -1,0 C -2,1 C
03.12.2012 23:16 0,5 C 90 % 1000,6 hPa 0,0 l/m 5,0 km/h (1 Bft) S-SO 157 -0,9 C -1,0 C
03.12.2012 23:21 0,5 C 90 % 1000,4 hPa 0,0 l/m 14,0 km/h (3 Bft) S-SW 202 -0,9 C -3,6 C
03.12.2012 23:26 0,5 C 90 % 1000,4 hPa 0,0 l/m 9,7 km/h (2 Bft) S-SW 202 -0,9 C -2,6 C
03.12.2012 23:31 0,4 C 90 % 1000,3 hPa 0,0 l/m 11,9 km/h (2 Bft) S-SO 157 -1,0 C -3,3 C
03.12.2012 23:36 0,4 C 90 % 1000,1 hPa 0,0 l/m 10,8 km/h (2 Bft) S-SO 157 -1,0 C -3,0 C
03.12.2012 23:41 0,4 C 90 % 999,9 hPa 0,0 l/m 12,6 km/h (3 Bft) S-SW 202 -1,0 C -3,4 C
03.12.2012 23:46 0,4 C 91 % 1000,0 hPa 0,0 l/m 6,1 km/h (2 Bft) S-SO 157 -0,9 C -1,6 C
03.12.2012 23:51 0,4 C 91 % 999,8 hPa 0,0 l/m 3,2 km/h (1 Bft) S 180 -0,9 C 0,4 C
03.12.2012 23:56 0,4 C 91 % 999,7 hPa 0,0 l/m 9,4 km/h (2 Bft) S 180 -0,9 C -2,7 C
_ Min-Zeit 07:36 05:21 23:56 - 00:01 - - 07:31 07:46
Minimum _ -1,7 C 83 % 999,7 hPa - 0,0 km/h (0 Bft) - - -3,9 C -5,8 C
_ Max-Zeit 14:01 00:01 07:51 10:26 20:26 - - 14:01 13:26
Maximum _ 2,1 C 93 % 1015,6 hPa 0,5 l/m 23,4 km/h
S-SW (4 Bft)
- - -0,2 C 1,4 C
Durchschnitt _ 0,2 C 87 % 1010,9 hPa #1,0 l/m 6,7 km/h (2 Bft) S-SO - -1,7 C -1,7 C
(c) by David Heller